Wednesday, August 15, 2018, 4:50 AM GMT
Back to Local

CWKG, Kejimkujik 1, N. S.

Location: , , Canada Lat: 44.433
Local Time: 4:50 AM GMT ( 4:50 GMT) Lon: -65.2
Time Zone: GMT Elev: 416 ft

Show me the last for .
Show Coded

Time T Td Feel RH Dir Speed Gust Alt SLP Vis Weather Sky Remarks
2018-08-15 04:00 71 68 76 91 240° 6 - - 29.91 0 None
2018-08-15 03:00 71 68 76 90 240° 5 - - 29.91 0 None
2018-08-15 02:00 72 67 76 85 240° 5 - - 29.92 0 None
2018-08-15 01:00 72 70 76 92 230° 5 - - 29.93 0 None
2018-08-15 00:00 73 70 77 90 240° 6 - - 29.91 0 None
2018-08-14 23:00 75 72 79 89 200° 3 - - 29.90 0 None
2018-08-14 22:00 77 73 82 86 180° 5 - - 29.90 0 None
2018-08-14 21:00 76 72 81 86 160° 5 - - 29.91 0 1-hr Precip Total: 0.01"
2018-08-14 20:00 76 72 80 88 160° 2 - - 29.93 0 1-hr Precip Total: 0.04"
2018-08-14 19:00 75 71 79 89 150° 5 - - 29.93 0 None
2018-08-14 18:00 75 72 79 90 150° 3 - - 29.95 0 None
2018-08-14 17:00 73 70 77 90 160° 5 - - 29.96 0 None
2018-08-14 16:00 73 71 77 92 140° 6 - - 29.97 0 1-hr Precip Total: 0.02"
2018-08-14 15:00 72 69 76 91 140° 5 - - 29.99 0 1-hr Precip Total: 0.04"
2018-08-14 14:00 72 68 76 87 140° 6 - - 30.00 0 None
2018-08-14 13:00 71 68 76 89 120° 5 - - 30.00 0 None
2018-08-14 12:00 69 66 - 91 130° 5 - - 30.00 0 None
2018-08-14 11:00 67 65 - 91 110° 5 - - 30.01 0 None
2018-08-14 10:00 66 64 - 91 100° 3 - - 30.01 0 None
2018-08-14 09:00 66 63 - 89 100° 5 - - 30.01 0 None
2018-08-14 08:00 65 60 - 83 100° 3 - - 30.02 0 None
2018-08-14 07:00 66 62 - 88 130° 2 - - 30.03 0 None
2018-08-14 06:00 65 61 - 87 130° 3 - - 30.04 0 None
2018-08-14 05:00 64 60 - 86 110° 2 - - 30.05 0 None

Support USWX by starting your Amazon purchase here.